Time;durP1;ratioP1;P1;durP2;ratioP2;P2;SDS_P1;SDS_P2;PMS_P1;PMS_P2;Temp;Humidity;BMP_temperature;BMP_pressure;BME280_temperature;BME280_humidity;BME280_pressure;Samples;Min_cycle;Max_cycle;Signal;HPM_P1;HPM_P2
2022/05/18 00:00:51;;;;;;;11.90;4.20;;;;;;;17.80;64.78;101601.59;3561243;40;20065;-62
2022/05/18 00:03:23;;;;;;;10.47;4.27;;;;;;;17.80;64.71;101609.75;3562199;40;20049;-62
2022/05/18 00:05:50;;;;;;;13.45;4.53;;;;;;;17.76;64.83;101617.25;3561874;40;20623;-61
2022/05/18 00:08:16;;;;;;;10.77;4.68;;;;;;;17.66;65.13;101599.06;3562550;40;20123;-61
2022/05/18 00:10:45;;;;;;;13.02;4.85;;;;;;;17.64;65.13;101599.19;3561005;40;20179;-62
2022/05/18 00:13:12;;;;;;;10.52;4.88;;;;;;;17.69;65.10;101616.00;3561931;40;20390;-61
2022/05/18 00:15:39;;;;;;;10.00;4.45;;;;;;;17.63;66.00;101611.03;3561889;40;20084;-61
2022/05/18 00:18:06;;;;;;;9.25;4.50;;;;;;;17.62;65.88;101618.34;3561654;40;20053;-62
2022/05/18 00:20:32;;;;;;;14.43;4.75;;;;;;;17.51;65.90;101607.47;3561992;40;20053;-61
2022/05/18 00:23:02;;;;;;;11.52;5.35;;;;;;;17.56;66.27;101620.69;3559469;40;20115;-62
2022/05/18 00:25:33;;;;;;;9.00;4.53;;;;;;;17.55;66.54;101629.84;3562010;40;20068;-61
2022/05/18 00:28:00;;;;;;;16.15;4.90;;;;;;;17.53;66.02;101620.91;3564526;40;20130;-61
2022/05/18 00:30:28;;;;;;;11.00;4.57;;;;;;;17.49;65.69;101614.00;3563100;40;20081;-61
2022/05/18 00:32:55;;;;;;;11.98;4.60;;;;;;;17.47;66.08;101615.97;3562421;40;20076;-61
2022/05/18 00:35:22;;;;;;;16.02;4.65;;;;;;;17.50;65.57;101629.31;3552754;40;20063;-61
2022/05/18 00:37:49;;;;;;;13.75;4.90;;;;;;;17.51;66.19;101628.34;3561175;40;20584;-61
2022/05/18 00:40:18;;;;;;;8.85;4.50;;;;;;;17.44;65.75;101621.63;3563823;40;20057;-61
2022/05/18 00:42:44;;;;;;;13.80;5.13;;;;;;;17.48;66.30;101625.88;3561903;40;20056;-62
2022/05/18 00:45:11;;;;;;;10.65;5.50;;;;;;;17.47;66.12;101624.13;3563676;40;20069;-61
2022/05/18 00:47:37;;;;;;;15.40;5.18;;;;;;;16.94;66.59;101541.25;3560988;40;20060;-61
2022/05/18 00:50:11;;;;;;;15.60;5.38;;;;;;;17.40;65.97;101621.00;3561521;40;20061;-64
2022/05/18 00:52:51;;;;;;;10.55;4.80;;;;;;;17.32;66.52;101613.47;3559891;40;20090;-62
2022/05/18 00:55:24;;;;;;;13.30;5.45;;;;;;;17.25;66.97;101611.31;3561695;40;20049;-62
2022/05/18 00:58:03;;;;;;;10.43;4.35;;;;;;;17.19;67.64;101607.25;3552932;40;20098;-61
2022/05/18 01:00:29;;;;;;;12.85;4.85;;;;;;;17.18;67.99;101621.81;3562030;40;20450;-61
2022/05/18 01:03:07;;;;;;;10.10;4.65;;;;;;;17.13;68.37;101618.59;3560002;40;20081;-62
2022/05/18 01:05:39;;;;;;;10.60;4.95;;;;;;;17.09;69.15;101622.50;3561076;40;20057;-61
2022/05/18 01:08:05;;;;;;;11.02;5.20;;;;;;;17.07;69.14;101624.50;3560667;40;20085;-61
2022/05/18 01:10:30;;;;;;;16.92;5.13;;;;;;;17.09;69.25;101627.94;3561046;40;20391;-61
2022/05/18 01:12:59;;;;;;;9.82;4.45;;;;;;;17.09;69.62;101627.94;3559310;40;20056;-62
2022/05/18 01:15:25;;;;;;;7.70;4.43;;;;;;;17.05;69.40;101616.44;3561747;40;20073;-62
2022/05/18 01:17:58;;;;;;;11.10;4.40;;;;;;;17.06;69.72;101625.47;3561528;40;20053;-61
2022/05/18 01:20:32;;;;;;;10.80;4.82;;;;;;;17.03;69.23;101623.88;3562330;40;20053;-61
2022/05/18 01:23:28;;;;;;;13.40;5.10;;;;;;;17.07;70.06;101629.94;3560385;40;20308;-62
2022/05/18 01:26:33;;;;;;;9.82;4.97;;;;;;;17.07;70.12;101617.22;3562225;40;20101;-62
2022/05/18 01:29:01;;;;;;;12.65;4.43;;;;;;;17.08;69.94;101610.78;3562260;40;20483;-62
2022/05/18 01:31:52;;;;;;;12.02;5.28;;;;;;;17.10;70.16;101618.84;3561537;40;20143;-61
2022/05/18 01:34:24;;;;;;;11.45;4.60;;;;;;;17.01;69.91;101608.66;3562309;40;20134;-62
2022/05/18 01:36:50;;;;;;;9.77;4.90;;;;;;;17.12;69.55;101622.28;3562589;40;20057;-61
2022/05/18 01:39:38;;;;;;;9.75;4.78;;;;;;;17.09;70.48;101622.50;3562667;40;20057;-62
2022/05/18 01:42:06;;;;;;;8.23;5.00;;;;;;;17.13;70.34;101624.03;3561902;40;20069;-62
2022/05/18 01:44:40;;;;;;;8.98;5.10;;;;;;;17.12;70.10;101628.56;3562672;40;20049;-62
2022/05/18 01:47:07;;;;;;;11.00;5.22;;;;;;;17.14;70.61;101621.19;3561958;40;20084;-61
2022/05/18 01:49:38;;;;;;;11.63;5.13;;;;;;;17.16;70.65;101621.09;3562935;40;20359;-61
2022/05/18 01:52:05;;;;;;;9.40;4.80;;;;;;;17.14;70.03;101614.88;3562376;40;20045;-61
2022/05/18 01:54:42;;;;;;;7.97;5.07;;;;;;;17.16;70.29;101618.38;3563046;40;20068;-61
2022/05/18 01:57:08;;;;;;;7.32;5.07;;;;;;;17.04;70.20;101593.00;3562230;40;20057;-62
2022/05/18 01:59:35;;;;;;;12.43;5.50;;;;;;;17.16;70.05;101623.78;3561969;40;20061;-62
2022/05/18 02:02:01;;;;;;;9.60;5.32;;;;;;;17.13;70.00;101618.59;3562167;40;20077;-62
2022/05/18 02:04:27;;;;;;;13.35;5.80;;;;;;;17.09;69.69;101612.50;3562254;40;20061;-62
2022/05/18 02:06:53;;;;;;;9.05;5.35;;;;;;;17.06;70.15;101615.50;3561504;40;20077;-62
2022/05/18 02:09:20;;;;;;;10.77;5.45;;;;;;;17.12;70.35;101619.56;3562481;40;21771;-61
2022/05/18 02:11:46;;;;;;;12.65;5.82;;;;;;;17.09;70.35;101617.06;3562618;40;20083;-61
2022/05/18 02:14:12;;;;;;;8.57;5.55;;;;;;;17.02;70.51;101613.09;3563613;40;20408;-61
2022/05/18 02:16:37;;;;;;;8.90;5.43;;;;;;;17.05;71.18;101618.31;3562095;40;20060;-62
2022/05/18 02:19:04;;;;;;;7.80;5.25;;;;;;;17.01;70.69;101608.66;3562563;40;20057;-62
2022/05/18 02:21:30;;;;;;;7.47;5.18;;;;;;;17.00;70.97;101615.06;3561927;40;20061;-61
2022/05/18 02:23:56;;;;;;;9.60;5.60;;;;;;;17.03;71.23;101618.44;3562247;40;20292;-62
2022/05/18 02:26:21;;;;;;;8.70;5.88;;;;;;;17.04;70.40;101616.59;3562832;40;20053;-61
2022/05/18 02:28:48;;;;;;;11.25;5.60;;;;;;;17.02;70.34;101618.53;3561674;40;20439;-61
2022/05/18 02:31:14;;;;;;;10.20;5.45;;;;;;;17.01;71.19;101605.94;3561812;40;20093;-62
2022/05/18 02:33:41;;;;;;;10.70;5.72;;;;;;;17.05;70.48;101610.16;3562740;40;20045;-61
2022/05/18 02:36:10;;;;;;;7.75;5.80;;;;;;;17.05;70.88;101615.59;3562742;40;20046;-61
2022/05/18 02:38:37;;;;;;;10.95;5.70;;;;;;;17.05;71.22;101607.44;3561557;40;20053;-61
2022/05/18 02:41:03;;;;;;;7.90;5.65;;;;;;;17.06;71.26;101615.50;3561031;40;20069;-62
2022/05/18 02:43:30;;;;;;;10.55;5.95;;;;;;;17.06;71.06;101614.59;3562799;40;21892;-61
2022/05/18 02:46:03;;;;;;;9.75;6.47;;;;;;;17.07;70.90;101621.78;3562306;40;20061;-62
2022/05/18 02:48:29;;;;;;;10.35;6.93;;;;;;;17.07;71.29;101624.50;3560937;40;20286;-61
2022/05/18 02:50:55;;;;;;;12.02;6.15;;;;;;;17.10;71.07;101618.84;3561175;40;20355;-61
2022/05/18 02:53:21;;;;;;;11.18;6.38;;;;;;;16.97;70.99;101601.72;3560969;40;20061;-61
2022/05/18 02:56:06;;;;;;;8.98;6.97;;;;;;;16.93;71.36;101596.50;3560763;40;20269;-61
2022/05/18 02:58:48;;;;;;;10.75;6.75;;;;;;;17.05;71.76;101612.88;3562783;40;20056;-61
2022/05/18 03:01:25;;;;;;;11.50;6.85;;;;;;;17.00;71.98;101615.06;3561834;40;20052;-61
2022/05/18 03:03:54;;;;;;;7.85;6.40;;;;;;;16.98;71.89;101612.47;3559400;40;20049;-61
2022/05/18 03:06:24;;;;;;;9.73;6.57;;;;;;;17.02;71.81;101623.97;3564133;40;20320;-62
2022/05/18 03:08:50;;;;;;;14.77;7.35;;;;;;;16.93;72.01;101607.38;3563566;40;20084;-61
2022/05/18 03:11:18;;;;;;;11.25;6.60;;;;;;;16.99;71.79;101625.06;3563704;40;20085;-62
2022/05/18 03:13:44;;;;;;;10.40;6.22;;;;;;;17.06;72.19;101629.06;3562401;40;20049;-61
2022/05/18 03:16:10;;;;;;;8.45;6.40;;;;;;;17.09;71.09;101638.81;3562984;40;20064;-62
2022/05/18 03:18:36;;;;;;;10.38;6.55;;;;;;;17.10;71.01;101630.56;3561674;40;20056;-61
2022/05/18 03:24:08;;;;;;;8.95;6.57;;;;;;;17.16;71.21;101653.69;3530306;40;20085;-61
2022/05/18 03:26:35;;;;;;;11.52;6.82;;;;;;;17.12;70.73;101633.16;3530218;40;20059;-62
2022/05/18 03:29:00;;;;;;;14.20;6.70;;;;;;;17.22;70.81;101645.06;3542881;40;20080;-61
2022/05/18 03:31:27;;;;;;;9.68;6.55;;;;;;;17.29;70.71;101651.75;3561456;40;20403;-62
2022/05/18 03:33:58;;;;;;;9.48;6.45;;;;;;;17.28;70.21;101636.41;3561792;40;20053;-61
2022/05/18 03:36:25;;;;;;;12.10;6.90;;;;;;;17.25;69.94;101625.78;3559700;40;20057;-61
2022/05/18 03:38:52;;;;;;;13.60;7.50;;;;;;;17.37;69.85;101643.84;3559560;40;20052;-61
2022/05/18 03:41:18;;;;;;;11.30;7.22;;;;;;;16.80;69.52;101544.13;3561086;40;20474;-62
2022/05/18 03:43:45;;;;;;;12.13;8.05;;;;;;;17.52;69.23;101646.38;3561379;40;20505;-62
2022/05/18 03:46:12;;;;;;;10.52;7.20;;;;;;;17.53;69.03;101654.41;3560769;40;20045;-62
2022/05/18 03:48:38;;;;;;;13.02;7.63;;;;;;;17.55;69.51;101654.31;3563190;40;20061;-62
2022/05/18 03:51:07;;;;;;;11.45;7.15;;;;;;;17.54;68.72;101655.28;3560574;40;20411;-60
2022/05/18 03:53:34;;;;;;;11.38;7.30;;;;;;;17.62;69.34;101671.84;3562824;40;20334;-61
2022/05/18 03:56:01;;;;;;;9.07;6.82;;;;;;;17.60;69.25;101660.22;3562777;40;20049;-60
2022/05/18 03:58:28;;;;;;;9.90;7.30;;;;;;;17.72;69.01;101661.97;3561092;40;20378;-61
2022/05/18 04:00:56;;;;;;;9.88;7.13;;;;;;;17.81;67.74;101657.72;3561376;40;20053;-62
2022/05/18 04:03:26;;;;;;;12.50;7.05;;;;;;;17.88;68.01;101658.94;3561227;40;20407;-63
2022/05/18 04:05:53;;;;;;;13.05;7.03;;;;;;;17.96;67.56;101650.19;3562426;40;20072;-63
2022/05/18 04:08:20;;;;;;;6.68;5.90;;;;;;;18.07;66.48;101659.22;3561531;40;20093;-63
2022/05/18 04:10:46;;;;;;;10.45;6.53;;;;;;;18.19;65.78;101662.81;3562375;40;20057;-61
2022/05/18 04:13:17;;;;;;;8.55;6.20;;;;;;;18.29;65.55;101658.34;3560822;40;20372;-61
2022/05/18 04:15:43;;;;;;;12.27;6.05;;;;;;;18.37;66.57;101654.16;3561534;40;20098;-61
2022/05/18 04:18:09;;;;;;;9.48;5.75;;;;;;;18.41;65.58;101645.59;3560712;40;20061;-62
2022/05/18 04:20:35;;;;;;;11.30;5.57;;;;;;;18.56;65.16;101655.22;3562153;40;20418;-62
2022/05/18 04:23:01;;;;;;;9.48;6.20;;;;;;;18.55;65.18;101639.00;3561370;40;20054;-61
2022/05/18 04:25:28;;;;;;;8.38;5.70;;;;;;;18.77;64.90;101668.09;3561273;40;20435;-62
2022/05/18 04:27:55;;;;;;;8.88;5.15;;;;;;;18.85;64.32;101662.03;3561116;40;20089;-63
2022/05/18 04:30:25;;;;;;;7.07;5.10;;;;;;;18.46;63.32;101591.66;3559619;40;20511;-62
2022/05/18 04:32:52;;;;;;;10.25;5.10;;;;;;;19.06;63.06;101672.94;3558606;40;20092;-62
2022/05/18 04:35:24;;;;;;;6.95;4.95;;;;;;;19.10;62.85;101669.00;3561842;40;20065;-62
2022/05/18 04:37:50;;;;;;;10.00;5.32;;;;;;;19.17;62.52;101681.97;3562595;40;20300;-62
2022/05/18 04:40:16;;;;;;;7.78;5.00;;;;;;;19.24;62.80;101683.16;3561321;40;20049;-61
2022/05/18 04:42:42;;;;;;;6.72;4.18;;;;;;;19.27;61.80;101670.28;3560635;40;20108;-63
2022/05/18 04:45:13;;;;;;;6.30;4.82;;;;;;;19.24;61.38;101661.34;3560249;40;20069;-63
2022/05/18 04:47:39;;;;;;;6.95;4.80;;;;;;;19.38;61.53;101673.84;3561003;40;20414;-63
2022/05/18 04:50:07;;;;;;;8.23;4.68;;;;;;;19.51;61.50;101683.69;3560895;40;20076;-62
2022/05/18 04:52:33;;;;;;;7.10;4.50;;;;;;;19.55;61.13;101682.41;3563348;40;20421;-62
2022/05/18 04:54:58;;;;;;;7.18;4.43;;;;;;;19.59;60.08;101692.91;3563132;40;20041;-62
2022/05/18 04:57:24;;;;;;;7.68;4.32;;;;;;;19.63;60.03;101696.25;3560595;40;20133;-62
2022/05/18 04:59:51;;;;;;;6.45;4.55;;;;;;;19.68;60.49;101696.75;3564115;40;20049;-62
2022/05/18 05:02:18;;;;;;;7.38;4.93;;;;;;;19.71;59.48;101707.41;3562987;40;20052;-62
2022/05/18 05:04:44;;;;;;;7.70;4.57;;;;;;;19.77;60.30;101706.88;3562828;40;20057;-62
2022/05/18 05:07:10;;;;;;;8.80;4.82;;;;;;;19.82;60.43;101711.91;3560631;40;20283;-62
2022/05/18 05:09:37;;;;;;;7.25;4.53;;;;;;;19.87;60.44;101717.84;3553935;40;20045;-63
2022/05/18 05:12:04;;;;;;;8.18;4.45;;;;;;;19.86;59.79;101705.22;3561787;40;20061;-62
2022/05/18 05:14:30;;;;;;;5.88;4.57;;;;;;;19.90;59.44;101706.66;3562649;40;20057;-62
2022/05/18 05:16:56;;;;;;;6.60;4.50;;;;;;;19.97;59.32;101713.31;3561534;40;20057;-62
2022/05/18 05:19:21;;;;;;;5.53;4.28;;;;;;;20.00;59.77;101706.72;3563001;40;20060;-62
2022/05/18 05:21:47;;;;;;;11.25;4.63;;;;;;;20.14;58.94;101720.91;3560627;40;20049;-62
2022/05/18 05:24:16;;;;;;;7.05;4.78;;;;;;;19.98;59.28;101682.31;3606443;23;20406;-61
2022/05/18 05:26:43;;;;;;;8.15;4.47;;;;;;;20.26;59.21;101729.00;3582417;40;20060;-61
2022/05/18 05:29:11;;;;;;;7.68;4.40;;;;;;;20.22;59.48;101706.56;3580823;40;20067;-61
2022/05/18 05:31:38;;;;;;;5.82;4.78;;;;;;;20.35;58.52;101719.97;3582139;40;20059;-61
2022/05/18 05:34:05;;;;;;;7.10;4.65;;;;;;;20.41;58.85;101723.03;3573976;40;20139;-60
2022/05/18 05:36:31;;;;;;;8.07;4.80;;;;;;;20.46;58.92;101725.38;3573012;40;20053;-61
2022/05/18 05:38:57;;;;;;;8.63;4.38;;;;;;;20.52;58.18;101729.41;3570060;40;20293;-61
2022/05/18 05:41:24;;;;;;;7.55;4.55;;;;;;;20.52;58.32;101722.13;3574109;40;20119;-62
2022/05/18 05:43:50;;;;;;;7.38;4.57;;;;;;;;;;3569788;40;20053;-60
2022/05/18 05:46:17;;;;;;;6.05;4.65;;;;;;;20.70;58.74;101738.69;3571110;40;20068;-60
2022/05/18 05:48:46;;;;;;;7.47;4.40;;;;;;;20.80;58.40;101725.06;3573280;40;20044;-65
2022/05/18 05:51:15;;;;;;;8.80;4.57;;;;;;;20.92;57.55;101734.88;3570480;40;20067;-65
2022/05/18 05:53:43;;;;;;;6.00;4.47;;;;;;;21.05;56.93;101743.69;3571312;40;20072;-65
2022/05/18 05:56:11;;;;;;;5.28;4.22;;;;;;;21.07;56.92;101735.38;3568365;40;20057;-65
2022/05/18 05:58:39;;;;;;;5.10;3.97;;;;;;;21.14;56.90;101735.66;3571752;40;20068;-65
2022/05/18 06:01:08;;;;;;;6.45;4.00;;;;;;;21.43;55.63;101763.06;3576887;40;20053;-65
2022/05/18 06:03:35;;;;;;;7.75;4.40;;;;;;;21.46;55.22;101752.69;3572774;40;20063;-65
2022/05/18 06:06:03;;;;;;;8.07;3.97;;;;;;;21.56;55.40;101759.03;3571288;40;20069;-65
2022/05/18 06:08:31;;;;;;;7.15;4.28;;;;;;;21.57;55.84;101759.94;3573210;40;20060;-63
2022/05/18 06:10:59;;;;;;;4.90;3.63;;;;;;;21.63;55.88;101753.00;3571603;40;20323;-63
2022/05/18 06:13:27;;;;;;;7.47;3.90;;;;;;;21.66;55.26;101758.16;3579763;40;20066;-64
2022/05/18 06:15:53;;;;;;;5.72;3.60;;;;;;;21.67;55.58;101757.19;3570908;40;20411;-64
2022/05/18 06:18:18;;;;;;;6.70;4.05;;;;;;;21.72;55.46;101763.06;3569572;40;20068;-64
2022/05/18 06:20:47;;;;;;;6.22;3.75;;;;;;;21.74;55.75;101766.53;3571900;40;20052;-64
2022/05/18 06:23:15;;;;;;;6.10;3.75;;;;;;;21.76;55.83;101776.34;3569990;40;20096;-64
2022/05/18 06:25:41;;;;;;;6.25;3.67;;;;;;;21.77;56.09;101780.78;3569715;40;20097;-64
2022/05/18 06:28:08;;;;;;;10.40;4.18;;;;;;;21.80;55.43;101793.34;3571320;40;20118;-65
2022/05/18 06:30:35;;;;;;;8.38;4.07;;;;;;;21.82;55.21;101788.59;3569878;40;20062;-64
2022/05/18 06:33:01;;;;;;;6.38;3.85;;;;;;;21.85;55.09;101780.09;3569675;40;20057;-64
2022/05/18 06:35:27;;;;;;;6.53;4.03;;;;;;;21.86;54.88;101780.94;3571751;40;20261;-64
2022/05/18 06:37:52;;;;;;;8.73;4.40;;;;;;;21.90;55.27;101793.31;3570936;40;20056;-64
2022/05/18 06:40:18;;;;;;;6.35;4.30;;;;;;;21.91;54.40;101795.03;3571939;40;20520;-64
2022/05/18 06:42:45;;;;;;;8.65;4.57;;;;;;;21.92;54.40;101797.66;3568596;40;20152;-64
2022/05/18 06:45:14;;;;;;;7.07;3.97;;;;;;;21.95;53.97;101791.03;3568838;40;20051;-64
2022/05/18 06:47:40;;;;;;;10.75;4.15;;;;;;;21.86;53.95;101784.53;3574843;40;20093;-64
2022/05/18 06:50:09;;;;;;;10.57;4.47;;;;;;;21.96;53.46;101803.69;3568844;40;20053;-64
2022/05/18 06:52:35;;;;;;;8.70;4.30;;;;;;;21.95;52.87;101794.63;3571561;40;20434;-65
2022/05/18 06:55:02;;;;;;;13.27;4.40;;;;;;;21.97;53.26;101795.31;3569357;40;20064;-65
2022/05/18 06:57:27;;;;;;;11.52;4.65;;;;;;;22.04;53.00;101795.59;3575216;40;20049;-64
2022/05/18 06:59:53;;;;;;;9.90;4.38;;;;;;;21.99;53.19;101778.75;3572257;40;20059;-64
2022/05/18 07:02:19;;;;;;;13.20;4.45;;;;;;;22.09;53.35;101789.69;3573582;40;21493;-64
2022/05/18 07:04:44;;;;;;;9.60;4.50;;;;;;;22.31;53.09;101797.63;3572501;40;20082;-64
2022/05/18 07:07:10;;;;;;;12.95;5.53;;;;;;;22.58;52.59;101815.13;3572663;40;20106;-64
2022/05/18 07:09:36;;;;;;;10.48;5.80;;;;;;;22.88;51.80;101814.00;3570175;40;20500;-64
2022/05/18 07:12:03;;;;;;;9.85;5.82;;;;;;;23.10;51.91;101823.75;3567505;40;20052;-64
2022/05/18 07:14:29;;;;;;;12.18;6.40;;;;;;;23.17;51.43;101827.59;3570927;40;20055;-64
2022/05/18 07:16:57;;;;;;;11.13;7.07;;;;;;;23.10;51.35;101827.34;3571064;40;20094;-64
2022/05/18 07:19:24;;;;;;;14.05;7.20;;;;;;;23.05;52.67;101817.84;3572255;40;20190;-65
2022/05/18 07:21:50;;;;;;;15.02;7.95;;;;;;;23.00;52.72;101821.06;3572115;40;20115;-64
2022/05/18 07:24:17;;;;;;;11.80;8.00;;;;;;;22.80;52.09;101797.44;3572601;40;20052;-64
2022/05/18 07:26:44;;;;;;;17.33;8.30;;;;;;;22.92;52.90;101827.25;3570314;40;20110;-64
2022/05/18 07:29:10;;;;;;;13.88;7.03;;;;;;;22.96;53.08;101829.72;3573521;40;20063;-64
2022/05/18 07:34:22;;;;;;;10.38;6.10;;;;;;;22.97;53.68;101828.75;3572655;40;20111;-64
2022/05/18 07:36:54;;;;;;;16.15;7.07;;;;;;;22.97;53.49;101826.00;3567800;40;20068;-64
2022/05/18 07:39:20;;;;;;;13.30;7.05;;;;;;;22.94;53.50;101828.00;3569221;40;20065;-64
2022/05/18 07:41:46;;;;;;;11.98;6.97;;;;;;;22.91;54.00;101833.75;3571783;40;20129;-64
2022/05/18 07:44:12;;;;;;;12.90;7.28;;;;;;;22.50;54.26;101758.34;3572161;40;20373;-64
2022/05/18 07:46:39;;;;;;;10.95;7.10;;;;;;;22.87;54.49;101832.34;3573512;40;20057;-64
2022/05/18 07:49:05;;;;;;;11.02;7.38;;;;;;;23.02;54.52;101838.22;3571636;40;20064;-64
2022/05/18 07:51:32;;;;;;;15.20;7.20;;;;;;;23.28;53.90;101843.00;3572550;40;20449;-64
2022/05/18 07:53:58;;;;;;;8.57;7.05;;;;;;;23.52;53.24;101842.41;3580585;40;20056;-64
2022/05/18 07:56:24;;;;;;;10.30;6.68;;;;;;;23.57;52.88;101818.97;3567795;40;20426;-64
2022/05/18 07:58:49;;;;;;;13.30;7.47;;;;;;;23.91;52.58;101840.25;3571602;40;20423;-64
2022/05/18 08:01:15;;;;;;;10.10;6.82;;;;;;;24.25;51.86;101845.88;3569723;40;20076;-63
2022/05/18 08:03:41;;;;;;;10.15;6.57;;;;;;;24.45;52.00;101848.47;3570867;40;20064;-63
2022/05/18 08:06:07;;;;;;;11.50;7.03;;;;;;;24.66;49.90;101843.47;3569253;40;20276;-63
2022/05/18 08:08:32;;;;;;;10.73;7.00;;;;;;;25.02;50.42;101848.81;3569914;40;20387;-63
2022/05/18 08:16:30;;;;;;;8.70;6.38;;;;;;;25.06;49.85;101850.22;3570299;40;20055;-63
2022/05/18 08:18:57;;;;;;;14.15;6.45;;;;;;;25.10;49.92;101843.34;3567634;40;20379;-63
2022/05/18 08:21:24;;;;;;;12.25;6.70;;;;;;;25.30;50.71;101846.72;3567727;40;20111;-63
2022/05/18 08:23:50;;;;;;;14.27;6.63;;;;;;;25.62;49.03;101856.97;3570284;40;20059;-63
2022/05/18 08:26:16;;;;;;;10.88;7.20;;;;;;;25.95;49.08;101843.28;3569738;40;20141;-63
2022/05/18 08:28:42;;;;;;;9.90;7.22;;;;;;;26.13;48.41;101855.03;3570650;40;20064;-63
2022/05/18 08:31:07;;;;;;;10.48;6.85;;;;;;;26.31;47.25;101857.59;3571972;40;20379;-63
2022/05/18 08:33:34;;;;;;;10.02;7.38;;;;;;;26.47;47.07;101855.84;3571808;40;20060;-63
2022/05/18 08:36:06;;;;;;;9.15;6.80;;;;;;;26.67;47.56;101850.84;3573599;40;20052;-64
2022/05/18 08:38:34;;;;;;;9.82;7.13;;;;;;;26.81;45.73;101856.50;3569671;40;20060;-64
2022/05/18 08:41:08;;;;;;;9.65;6.78;;;;;;;27.06;46.20;101861.94;3574534;40;20060;-64
2022/05/18 08:43:40;;;;;;;11.55;7.55;;;;;;;27.27;45.35;101853.06;3572233;40;20057;-64
2022/05/18 08:46:18;;;;;;;6.57;5.60;;;;;;;27.52;45.50;101860.19;3572823;40;20057;-63
2022/05/18 08:49:07;;;;;;;8.35;5.78;;;;;;;27.75;43.64;101870.41;3574584;40;20057;-63
2022/05/18 08:52:32;;;;;;;6.57;5.40;;;;;;;27.65;43.01;101826.44;3570147;40;20048;-64
2022/05/18 08:55:08;;;;;;;7.60;5.28;;;;;;;27.91;43.29;101861.19;3572834;40;20052;-63
2022/05/18 08:57:41;;;;;;;7.72;5.18;;;;;;;27.93;43.58;101864.63;3573798;40;20044;-64
2022/05/18 09:00:19;;;;;;;10.95;6.20;;;;;;;28.03;43.56;101865.25;3572788;40;20057;-64
2022/05/18 09:03:03;;;;;;;9.02;6.30;;;;;;;28.07;43.81;101866.63;3571747;40;20076;-64
2022/05/18 09:06:05;;;;;;;7.70;6.20;;;;;;;28.19;41.79;101875.31;3571349;40;20084;-64
2022/05/18 09:08:40;;;;;;;8.20;5.03;;;;;;;28.24;42.17;101867.34;3572870;40;20050;-64
2022/05/18 09:11:13;;;;;;;7.10;5.35;;;;;;;28.35;42.32;101864.09;3572172;40;20055;-64
2022/05/18 09:13:39;;;;;;;12.07;6.93;;;;;;;28.60;42.62;101867.53;3573607;40;20053;-65
2022/05/18 09:17:03;;;;;;;9.23;6.05;;;;;;;28.75;42.12;101864.78;3576020;40;20059;-64
2022/05/18 09:19:47;;;;;;;;;;;;;;;28.65;41.29;101870.59;3572176;40;20067;-64
2022/05/18 09:22:34;;;;;;;7.00;5.32;;;;;;;28.47;42.00;101870.09;3570069;40;19944;-64
2022/05/18 09:25:10;;;;;;;8.57;5.47;;;;;;;28.24;42.33;101868.19;3572720;40;20052;-63
2022/05/18 09:28:22;;;;;;;7.90;5.70;;;;;;;28.09;42.05;101867.28;3574512;40;20107;-63
2022/05/18 09:31:21;;;;;;;7.30;5.57;;;;;;;27.91;42.19;101873.13;3559692;40;20093;-63
2022/05/18 09:34:09;;;;;;;7.72;4.95;;;;;;;28.30;41.95;101865.72;3576360;40;20045;-64
2022/05/18 09:37:19;;;;;;;8.80;5.43;;;;;;;28.48;41.94;101868.19;3571804;40;20053;-64
2022/05/18 09:40:14;;;;;;;7.07;4.80;;;;;;;28.38;41.47;101872.03;3571827;40;20052;-64
2022/05/18 09:43:08;;;;;;;6.63;4.15;;;;;;;28.29;41.86;101864.88;3572525;40;20052;-63
2022/05/18 09:45:43;;;;;;;7.95;4.40;;;;;;;28.23;41.70;101871.16;3573879;40;20045;-64
2022/05/18 09:48:16;;;;;;;7.05;4.07;;;;;;;28.02;41.68;101840.56;3572157;40;20307;-64
2022/05/18 09:50:45;;;;;;;;;;;;;;;28.08;41.92;101861.94;3573356;40;20075;-64
2022/05/18 09:53:11;;;;;;;3.58;2.50;;;;;;;28.38;40.14;101868.41;3573778;40;20254;-64
2022/05/18 09:55:38;;;;;;;6.47;3.20;;;;;;;28.63;40.71;101871.84;3571092;40;20056;-64
2022/05/18 09:58:15;;;;;;;8.32;3.65;;;;;;;28.93;39.88;101861.66;3570532;40;20068;-64
2022/05/18 10:00:43;;;;;;;5.47;4.25;;;;;;;29.00;39.79;101861.75;3572830;40;20138;-64
2022/05/18 10:09:11;;;;;;;5.88;2.78;;;;;;;29.30;38.90;101869.00;3569512;40;20085;-64
2022/05/18 10:11:39;;;;;;;4.10;2.10;;;;;;;29.61;38.56;101865.16;3570933;40;20130;-64
2022/05/18 10:14:16;;;;;;;3.33;2.30;;;;;;;29.88;38.32;101866.31;3569882;40;20092;-64
2022/05/18 10:17:08;;;;;;;3.63;1.80;;;;;;;29.97;37.30;101862.38;3570454;40;20057;-64
2022/05/18 10:19:47;;;;;;;4.35;2.20;;;;;;;30.20;36.54;101859.41;3567542;40;20048;-63
2022/05/18 10:22:30;;;;;;;3.20;2.30;;;;;;;30.29;35.98;101846.25;3569876;40;20097;-63
2022/05/18 10:24:59;;;;;;;4.60;2.97;;;;;;;30.43;34.50;101864.72;3569433;40;20060;-63
2022/05/18 10:27:34;;;;;;;4.53;2.50;;;;;;;30.44;35.26;101862.78;3571901;40;20049;-63
2022/05/18 10:30:17;;;;;;;7.22;2.70;;;;;;;30.52;35.11;101865.44;3570160;40;20053;-64
2022/05/18 10:32:59;;;;;;;4.13;2.72;;;;;;;30.39;36.25;101870.88;3571513;40;20052;-64
2022/05/18 10:35:51;;;;;;;5.60;2.47;;;;;;;30.33;35.67;101864.22;3581423;40;20759;-64
2022/05/18 10:38:27;;;;;;;4.55;2.80;;;;;;;30.46;37.48;101860.69;3571987;40;20096;-63
2022/05/18 10:41:08;;;;;;;3.95;2.17;;;;;;;30.54;36.42;101854.97;3569404;40;20057;-64
2022/05/18 10:43:54;;;;;;;7.57;2.90;;;;;;;30.61;35.39;101855.91;3574202;40;20343;-63
2022/05/18 10:46:34;;;;;;;5.00;2.92;;;;;;;30.70;36.48;101843.59;3571971;40;20052;-64
2022/05/18 10:49:06;;;;;;;3.17;2.88;;;;;;;30.87;35.75;101846.06;3570407;40;20052;-64
2022/05/18 10:51:44;;;;;;;6.85;3.33;;;;;;;31.06;35.25;101836.97;3571556;40;20375;-64
2022/05/18 10:54:23;;;;;;;6.72;3.22;;;;;;;31.08;35.35;101840.41;3569262;40;20064;-64
2022/05/18 10:56:51;;;;;;;4.05;2.97;;;;;;;31.14;34.12;101841.50;3571871;40;20060;-64
2022/05/18 10:59:48;;;;;;;5.15;2.83;;;;;;;31.26;35.79;101844.53;3572614;40;20141;-64
2022/05/18 11:02:39;;;;;;;6.47;2.92;;;;;;;31.42;34.84;101841.44;3569567;40;20092;-64
2022/05/18 11:05:15;;;;;;;4.07;2.33;;;;;;;31.53;34.67;101838.06;3577955;40;20372;-64
2022/05/18 11:07:44;;;;;;;5.85;2.55;;;;;;;31.48;34.25;101835.03;3571585;40;20122;-64
2022/05/18 11:10:11;;;;;;;4.18;2.78;;;;;;;31.52;34.01;101841.03;3571204;40;20392;-64
2022/05/18 11:13:10;;;;;;;4.45;3.22;;;;;;;31.48;34.21;101835.03;3573801;40;20052;-64
2022/05/18 11:16:11;;;;;;;6.72;2.65;;;;;;;31.07;35.08;101837.84;3573717;40;20142;-64
2022/05/18 11:18:53;;;;;;;8.60;2.65;;;;;;;31.25;34.85;101837.28;3569801;40;20057;-64
2022/05/18 11:21:49;;;;;;;4.80;2.72;;;;;;;31.51;34.94;101842.13;3569959;40;20085;-64
2022/05/18 11:24:35;;;;;;;6.43;3.08;;;;;;;31.70;35.32;101840.44;3567439;40;20142;-64
2022/05/18 11:27:29;;;;;;;5.85;3.40;;;;;;;31.87;35.11;101839.81;3594546;22;20056;-66
2022/05/18 11:30:17;;;;;;;7.32;3.50;;;;;;;31.95;34.28;101840.75;3563153;40;20045;-67
2022/05/18 11:33:01;;;;;;;5.35;3.17;;;;;;;31.70;34.82;101838.53;3562102;40;20045;-66
2022/05/18 11:35:47;;;;;;;4.45;3.00;;;;;;;31.71;34.04;101839.38;3562349;40;20396;-66
2022/05/18 11:38:16;;;;;;;5.90;3.25;;;;;;;31.96;33.35;101829.41;3561822;40;20064;-65
2022/05/18 11:41:23;;;;;;;5.25;3.10;;;;;;;32.01;34.06;101824.06;3560289;40;20089;-66
2022/05/18 11:44:06;;;;;;;4.60;2.78;;;;;;;31.66;34.04;101824.19;3560131;40;20071;-66
2022/05/18 11:47:24;;;;;;;5.05;3.00;;;;;;;31.44;34.88;101822.63;3564177;40;20057;-66
2022/05/18 11:50:06;;;;;;;4.50;2.60;;;;;;;31.30;35.22;101816.13;3559284;40;20380;-66
2022/05/18 11:53:05;;;;;;;4.97;2.20;;;;;;;31.23;34.70;101816.09;3559784;40;20270;-66
2022/05/18 11:56:12;;;;;;;5.72;2.50;;;;;;;31.03;34.40;101820.72;3559755;40;20056;-66
2022/05/18 11:59:29;;;;;;;6.93;2.60;;;;;;;31.03;35.61;101815.16;3548823;40;20053;-66
2022/05/18 12:02:25;;;;;;;3.08;2.53;;;;;;;30.73;35.93;101825.63;3562535;40;20061;-66
2022/05/18 12:05:42;;;;;;;4.95;2.38;;;;;;;30.51;36.39;101822.97;3560743;40;20300;-66